KBQP

Morehouse Memorial Airport

Bastrop, Louisiana, USA
METAR KBQP 140455Z AUTO 36003KT 10SM OVC050 02/M02 A3041 RMK AO2 T00231022
Observed Flight Rules
Nov-14 @ 04:55 UTC (19 minutes ago) Visual Flight Rules
Wind Visibility Clouds
360° at 3 knots 10 miles
  • Overcast at 5,000' AGL
Temperatures Readings
Current 2°C / 36°F
Dewpoint -2°C / 28°F
Humidity 75%
Altimeter 30.41" Hg
Pressure 1030 hPa
Elevation 51
METAR KBQP 140455Z AUTO 36003KT 10SM OVC050 02/M02 A3041 RMK AO2 T00231022
Observed Flight Rules
Nov-14 @ 04:55 UTC
(19 minutes ago)
VFR
Wind Visibility
360° at 3 knots 10 miles
Clouds
  • Overcast at 5,000' AGL
Temperature Dewpoint
2°C / 36°F -2°C / 28°F
Humidity Altimeter Pressure
75% 30.41" Hg 1030 hPa